createdAt,value
2023-01-13T00:00:36.211Z,95171.00
2023-01-13T00:01:36.064Z,95173.00
2023-01-13T00:02:36.074Z,95171.00
2023-01-13T00:03:35.950Z,95169.00
2023-01-13T00:04:36.048Z,95171.00
2023-01-13T00:05:35.919Z,95175.00
2023-01-13T00:06:35.941Z,95181.00
2023-01-13T00:07:35.965Z,95181.00
2023-01-13T00:08:35.904Z,95181.00
2023-01-13T00:09:35.977Z,95183.00
2023-01-13T00:10:35.867Z,95177.00
2023-01-13T00:11:35.844Z,95175.00
2023-01-13T00:12:35.874Z,95175.00
2023-01-13T00:13:35.791Z,95171.00
2023-01-13T00:14:35.812Z,95173.00
2023-01-13T00:15:35.824Z,95177.00
2023-01-13T00:16:36.762Z,95179.00
2023-01-13T00:17:35.733Z,95181.00
2023-01-13T00:18:35.755Z,95181.00
2023-01-13T00:19:35.713Z,95181.00
2023-01-13T00:20:35.807Z,95181.00
2023-01-13T00:21:35.661Z,95175.00
2023-01-13T00:22:35.691Z,95181.00
2023-01-13T00:23:35.789Z,95179.00
2023-01-13T00:24:35.668Z,95183.00
2023-01-13T00:25:35.675Z,95183.00
2023-01-13T00:26:35.666Z,95181.00
2023-01-13T00:27:35.604Z,95177.00
2023-01-13T00:28:35.621Z,95177.00
2023-01-13T00:29:35.568Z,95175.00
2023-01-13T00:30:35.823Z,95177.00
2023-01-13T00:31:35.580Z,95177.00
2023-01-13T00:32:35.556Z,95173.00
2023-01-13T00:33:35.567Z,95169.00
2023-01-13T00:34:35.511Z,95167.00
2023-01-13T00:35:35.463Z,95173.00
2023-01-13T00:36:35.488Z,95177.00
2023-01-13T00:37:35.488Z,95175.00
2023-01-13T00:38:35.451Z,95169.00
2023-01-13T00:39:35.401Z,95164.00
2023-01-13T00:40:35.411Z,95162.00
2023-01-13T00:41:35.397Z,95162.00
2023-01-13T00:42:35.388Z,95162.00
2023-01-13T00:43:35.334Z,95158.00
2023-01-13T00:44:35.378Z,95152.00
2023-01-13T00:45:35.346Z,95152.00
2023-01-13T00:46:35.382Z,95152.00
2023-01-13T00:47:35.262Z,95150.00
2023-01-13T00:48:35.306Z,95152.00
2023-01-13T00:49:35.241Z,95150.00
2023-01-13T00:50:35.240Z,95148.00
2023-01-13T00:51:35.194Z,95154.00
2023-01-13T00:52:35.287Z,95158.00
2023-01-13T00:53:35.212Z,95162.00
2023-01-13T00:54:35.187Z,95166.00
2023-01-13T00:55:35.142Z,95162.00
2023-01-13T00:56:40.286Z,95164.00
2023-01-13T00:57:36.196Z,95167.00
2023-01-13T00:58:35.106Z,95173.00
2023-01-13T00:59:35.233Z,95173.00
2023-01-13T01:00:35.148Z,95171.00
2023-01-13T01:01:35.210Z,95167.00
2023-01-13T01:02:35.132Z,95162.00
2023-01-13T01:03:35.066Z,95162.00
2023-01-13T01:04:35.024Z,95162.00
2023-01-13T01:05:35.066Z,95164.00
2023-01-13T01:06:35.007Z,95167.00
2023-01-13T01:07:35.024Z,95166.00
2023-01-13T01:08:34.967Z,95164.00
2023-01-13T01:09:34.992Z,95164.00
2023-01-13T01:10:34.951Z,95164.00
2023-01-13T01:11:34.976Z,95162.00
2023-01-13T01:12:35.041Z,95162.00
2023-01-13T01:13:34.919Z,95156.00
2023-01-13T01:14:34.881Z,95158.00
2023-01-13T01:15:34.926Z,95162.00
2023-01-13T01:16:34.939Z,95160.00
2023-01-13T01:17:34.854Z,95162.00
2023-01-13T01:18:34.811Z,95158.00
2023-01-13T01:19:34.837Z,95158.00
2023-01-13T01:20:35.011Z,95160.00
2023-01-13T01:21:34.817Z,95156.00
2023-01-13T01:22:34.759Z,95158.00
2023-01-13T01:23:34.786Z,95156.00
2023-01-13T01:24:34.779Z,95154.00
2023-01-13T01:25:34.778Z,95154.00
2023-01-13T01:26:34.687Z,95158.00
2023-01-13T01:27:34.697Z,95158.00
2023-01-13T01:28:34.661Z,95162.00
2023-01-13T01:29:34.664Z,95164.00
2023-01-13T01:30:34.630Z,95164.00
2023-01-13T01:31:34.677Z,95169.00
2023-01-13T01:32:34.630Z,95173.00
2023-01-13T01:33:34.621Z,95179.00
2023-01-13T01:34:34.578Z,95181.00
2023-01-13T01:35:34.605Z,95177.00
2023-01-13T01:36:34.558Z,95177.00
2023-01-13T01:37:34.566Z,95177.00
2023-01-13T01:38:34.675Z,95177.00
2023-01-13T01:39:34.544Z,95175.00
2023-01-13T01:40:34.515Z,95177.00
2023-01-13T01:41:34.509Z,95175.00
2023-01-13T01:42:34.554Z,95179.00
2023-01-13T01:43:34.504Z,95181.00
2023-01-13T01:44:34.449Z,95183.00
2023-01-13T01:45:34.458Z,95183.00
2023-01-13T01:46:34.464Z,95181.00
2023-01-13T01:47:34.420Z,95183.00
2023-01-13T01:48:35.040Z,95185.00
2023-01-13T01:49:34.731Z,95187.00
2023-01-13T01:50:34.504Z,95185.00
2023-01-13T01:51:34.345Z,95185.00
2023-01-13T01:52:34.331Z,95187.00
2023-01-13T01:53:34.345Z,95189.00
2023-01-13T01:54:34.327Z,95191.00
2023-01-13T01:55:34.325Z,95193.00
2023-01-13T01:56:34.285Z,95193.00
2023-01-13T01:57:34.284Z,95189.00
2023-01-13T01:58:34.267Z,95185.00
2023-01-13T01:59:34.263Z,95183.00
2023-01-13T02:00:34.262Z,95179.00
2023-01-13T02:01:34.344Z,95181.00
2023-01-13T02:02:34.323Z,95185.00
2023-01-13T02:03:34.244Z,95189.00
2023-01-13T02:04:34.188Z,95189.00
2023-01-13T02:05:34.233Z,95189.00
2023-01-13T02:06:34.223Z,95185.00
2023-01-13T02:07:34.206Z,95181.00
2023-01-13T02:08:34.173Z,95183.00
2023-01-13T02:09:34.192Z,95181.00
2023-01-13T02:10:34.148Z,95183.00
2023-01-13T02:11:34.170Z,95181.00
2023-01-13T02:12:34.133Z,95181.00
2023-01-13T02:13:34.172Z,95181.00
2023-01-13T02:14:34.182Z,95181.00
2023-01-13T02:15:34.139Z,95183.00
2023-01-13T02:16:34.140Z,95185.00
2023-01-13T02:17:34.101Z,95187.00
2023-01-13T02:18:34.057Z,95191.00
2023-01-13T02:19:34.104Z,95191.00
2023-01-13T02:20:34.063Z,95189.00
2023-01-13T02:21:34.054Z,95191.00
2023-01-13T02:22:34.009Z,95193.00
2023-01-13T02:23:34.033Z,95193.00
2023-01-13T02:24:34.003Z,95193.00
2023-01-13T02:25:34.015Z,95195.00
2023-01-13T02:26:33.979Z,95197.00
2023-01-13T02:27:34.001Z,95197.00
2023-01-13T02:28:33.959Z,95197.00
2023-01-13T02:29:33.947Z,95195.00
2023-01-13T02:30:33.910Z,95193.00
2023-01-13T02:31:34.017Z,95187.00
2023-01-13T02:32:33.921Z,95187.00
2023-01-13T02:33:33.906Z,95185.00
2023-01-13T02:34:33.905Z,95183.00
2023-01-13T02:35:33.892Z,95179.00
2023-01-13T02:36:33.854Z,95177.00
2023-01-13T02:37:33.859Z,95177.00
2023-01-13T02:38:33.816Z,95181.00
2023-01-13T02:39:33.836Z,95187.00
2023-01-13T02:40:33.821Z,95193.00
2023-01-13T02:41:33.816Z,95191.00
2023-01-13T02:42:33.765Z,95181.00
2023-01-13T02:43:33.792Z,95181.00
2023-01-13T02:44:33.971Z,95187.00
2023-01-13T02:45:33.866Z,95189.00
2023-01-13T02:46:33.714Z,95195.00
2023-01-13T02:47:33.722Z,95193.00
2023-01-13T02:48:33.692Z,95191.00
2023-01-13T02:49:33.839Z,95185.00
2023-01-13T02:50:33.717Z,95175.00
2023-01-13T02:51:33.695Z,95175.00
2023-01-13T02:52:33.632Z,95179.00
2023-01-13T02:53:33.729Z,95187.00
2023-01-13T02:54:33.612Z,95189.00
2023-01-13T02:55:33.642Z,95185.00
2023-01-13T02:56:33.566Z,95183.00
2023-01-13T02:57:33.662Z,95181.00
2023-01-13T02:58:33.557Z,95179.00
2023-01-13T02:59:33.583Z,95181.00
2023-01-13T03:00:33.549Z,95183.00
2023-01-13T03:01:33.674Z,95183.00
2023-01-13T03:02:33.567Z,95187.00
2023-01-13T03:03:33.553Z,95183.00
2023-01-13T03:04:33.542Z,95187.00
2023-01-13T03:05:33.508Z,95187.00
2023-01-13T03:06:33.460Z,95185.00
2023-01-13T03:07:33.486Z,95179.00
2023-01-13T03:08:33.457Z,95177.00
2023-01-13T03:09:33.471Z,95173.00
2023-01-13T03:10:33.492Z,95177.00
2023-01-13T03:11:33.484Z,95179.00
2023-01-13T03:12:33.534Z,95179.00
2023-01-13T03:13:33.735Z,95179.00
2023-01-13T03:14:33.401Z,95181.00
2023-01-13T03:15:33.433Z,95175.00
2023-01-13T03:16:33.477Z,95171.00
2023-01-13T03:17:33.363Z,95169.00
2023-01-13T03:18:33.363Z,95160.00
2023-01-13T03:19:33.385Z,95158.00
2023-01-13T03:20:33.316Z,95158.00
2023-01-13T03:21:33.317Z,95162.00
2023-01-13T03:22:33.303Z,95164.00
2023-01-13T03:23:33.417Z,95164.00
2023-01-13T03:24:33.247Z,95166.00
2023-01-13T03:25:33.287Z,95167.00
2023-01-13T03:26:33.234Z,95166.00
2023-01-13T03:27:33.250Z,95166.00
2023-01-13T03:28:33.370Z,95164.00
2023-01-13T03:29:33.414Z,95162.00
2023-01-13T03:30:33.195Z,95162.00
2023-01-13T03:31:33.200Z,95162.00
2023-01-13T03:32:33.279Z,95162.00
2023-01-13T03:33:33.181Z,95162.00
2023-01-13T03:34:33.117Z,95158.00
2023-01-13T03:35:33.173Z,95156.00
2023-01-13T03:36:33.123Z,95158.00
2023-01-13T03:37:33.130Z,95156.00
2023-01-13T03:38:33.065Z,95164.00
2023-01-13T03:39:33.109Z,95164.00
2023-01-13T03:40:33.071Z,95166.00
2023-01-13T03:41:33.065Z,95164.00
2023-01-13T03:42:33.034Z,95162.00
2023-01-13T03:43:33.057Z,95162.00
2023-01-13T03:44:33.079Z,95160.00
2023-01-13T03:45:33.042Z,95162.00
2023-01-13T03:46:33.010Z,95162.00
2023-01-13T03:47:33.033Z,95160.00
2023-01-13T03:48:32.973Z,95158.00
2023-01-13T03:49:33.105Z,95158.00
2023-01-13T03:50:32.940Z,95160.00
2023-01-13T03:51:32.980Z,95160.00
2023-01-13T03:52:32.920Z,95164.00
2023-01-13T03:53:33.002Z,95167.00
2023-01-13T03:54:32.908Z,95167.00
2023-01-13T03:55:32.938Z,95171.00
2023-01-13T03:56:32.866Z,95173.00
2023-01-13T03:57:32.902Z,95169.00
2023-01-13T03:58:32.852Z,95169.00
2023-01-13T03:59:34.083Z,95167.00
2023-01-13T04:00:32.883Z,95167.00
2023-01-13T04:01:32.938Z,95166.00
2023-01-13T04:02:32.814Z,95162.00
2023-01-13T04:03:32.864Z,95156.00
2023-01-13T04:04:32.771Z,95154.00
2023-01-13T04:05:32.869Z,95148.00
2023-01-13T04:06:32.768Z,95148.00
2023-01-13T04:07:32.767Z,95150.00
2023-01-13T04:08:32.747Z,95148.00
2023-01-13T04:09:32.742Z,95148.00
2023-01-13T04:10:32.690Z,95150.00
2023-01-13T04:11:32.691Z,95152.00
2023-01-13T04:12:32.677Z,95154.00
2023-01-13T04:13:32.688Z,95158.00
2023-01-13T04:14:32.662Z,95158.00
2023-01-13T04:15:32.757Z,95158.00
2023-01-13T04:16:32.632Z,95160.00
2023-01-13T04:17:32.636Z,95162.00
2023-01-13T04:18:32.614Z,95162.00
2023-01-13T04:19:32.592Z,95164.00
2023-01-13T04:20:32.637Z,95164.00
2023-01-13T04:21:32.557Z,95164.00
2023-01-13T04:22:32.631Z,95166.00
2023-01-13T04:23:32.591Z,95166.00
2023-01-13T04:24:32.534Z,95164.00
2023-01-13T04:25:32.527Z,95166.00
2023-01-13T04:26:32.532Z,95162.00
2023-01-13T04:27:32.520Z,95162.00
2023-01-13T04:28:32.469Z,95162.00
2023-01-13T04:29:32.492Z,95166.00
2023-01-13T04:30:32.462Z,95164.00
2023-01-13T04:31:32.465Z,95164.00
2023-01-13T04:32:32.445Z,95162.00
2023-01-13T04:33:32.523Z,95164.00
2023-01-13T04:34:32.383Z,95166.00
2023-01-13T04:35:32.579Z,95164.00
2023-01-13T04:36:32.588Z,95169.00
2023-01-13T04:37:32.360Z,95175.00
2023-01-13T04:38:32.328Z,95183.00
2023-01-13T04:39:32.338Z,95189.00
2023-01-13T04:40:32.310Z,95187.00
2023-01-13T04:41:32.522Z,95189.00
2023-01-13T04:42:32.274Z,95185.00
2023-01-13T04:43:32.328Z,95183.00
2023-01-13T04:44:32.267Z,95181.00
2023-01-13T04:45:32.323Z,95181.00
2023-01-13T04:46:32.462Z,95183.00
2023-01-13T04:47:32.354Z,95185.00
2023-01-13T04:48:32.216Z,95183.00
2023-01-13T04:49:32.206Z,95183.00
2023-01-13T04:50:32.198Z,95185.00
2023-01-13T04:51:32.213Z,95185.00
2023-01-13T04:52:32.177Z,95187.00
2023-01-13T04:53:32.211Z,95185.00
2023-01-13T04:54:32.195Z,95185.00
2023-01-13T04:55:32.173Z,95183.00
2023-01-13T04:56:32.106Z,95183.00
2023-01-13T04:57:32.140Z,95181.00
2023-01-13T04:58:32.110Z,95181.00
2023-01-13T04:59:34.465Z,95181.00
2023-01-13T05:00:32.232Z,95179.00
2023-01-13T05:01:32.272Z,95185.00
2023-01-13T05:02:32.184Z,95179.00
2023-01-13T05:03:32.104Z,95175.00
2023-01-13T05:04:32.209Z,95169.00
2023-01-13T05:05:32.185Z,95169.00
2023-01-13T05:06:32.140Z,95171.00
2023-01-13T05:07:32.088Z,95175.00
2023-01-13T05:08:32.148Z,95179.00
2023-01-13T05:09:32.080Z,95183.00
2023-01-13T05:10:32.098Z,95179.00
2023-01-13T05:11:32.019Z,95177.00
2023-01-13T05:12:32.047Z,95177.00
2023-01-13T05:13:32.027Z,95171.00
2023-01-13T05:14:32.046Z,95175.00
2023-01-13T05:15:31.976Z,95171.00
2023-01-13T05:16:32.040Z,95173.00
2023-01-13T05:17:31.991Z,95171.00
2023-01-13T05:18:32.038Z,95167.00
2023-01-13T05:19:31.942Z,95162.00
2023-01-13T05:20:32.007Z,95160.00
2023-01-13T05:21:32.016Z,95160.00
2023-01-13T05:22:31.978Z,95162.00
2023-01-13T05:23:31.999Z,95169.00
2023-01-13T05:24:31.980Z,95173.00
2023-01-13T05:25:31.907Z,95173.00
2023-01-13T05:26:31.962Z,95167.00
2023-01-13T05:27:31.936Z,95166.00
2023-01-13T05:28:31.969Z,95166.00
2023-01-13T05:29:31.902Z,95166.00
2023-01-13T05:30:31.946Z,95167.00
2023-01-13T05:31:31.920Z,95169.00
2023-01-13T05:32:31.946Z,95171.00
2023-01-13T05:33:33.139Z,95167.00
2023-01-13T05:34:31.951Z,95164.00
2023-01-13T05:35:31.852Z,95160.00
2023-01-13T05:36:31.875Z,95160.00
2023-01-13T05:37:31.900Z,95166.00
2023-01-13T05:38:31.837Z,95167.00
2023-01-13T05:39:31.830Z,95169.00
2023-01-13T05:40:31.848Z,95166.00
2023-01-13T05:41:31.804Z,95160.00
2023-01-13T05:42:31.994Z,95160.00
2023-01-13T05:43:31.813Z,95160.00
2023-01-13T05:44:32.036Z,95160.00
2023-01-13T05:45:31.737Z,95158.00
2023-01-13T05:46:31.807Z,95158.00
2023-01-13T05:47:31.723Z,95158.00
2023-01-13T05:48:31.747Z,95158.00
2023-01-13T05:49:31.697Z,95158.00
2023-01-13T05:50:31.731Z,95154.00
2023-01-13T05:51:31.679Z,95158.00
2023-01-13T05:52:31.705Z,95154.00
2023-01-13T05:53:31.681Z,95150.00
2023-01-13T05:54:31.674Z,95136.00
2023-01-13T05:55:31.686Z,95144.00
2023-01-13T05:56:31.667Z,95144.00
2023-01-13T05:57:31.607Z,95146.00
2023-01-13T05:58:31.634Z,95144.00
2023-01-13T05:59:31.570Z,95134.00
2023-01-13T06:00:31.623Z,95134.00
2023-01-13T06:01:31.674Z,95134.00
2023-01-13T06:02:31.596Z,95132.00
2023-01-13T06:03:31.543Z,95126.00
2023-01-13T06:04:31.619Z,95126.00
2023-01-13T06:05:31.518Z,95124.00
2023-01-13T06:06:31.849Z,95122.00
2023-01-13T06:07:31.481Z,95118.00
2023-01-13T06:08:31.535Z,95114.00
2023-01-13T06:09:31.667Z,95113.00
2023-01-13T06:10:31.499Z,95109.00
2023-01-13T06:11:31.435Z,95105.00
2023-01-13T06:12:31.563Z,95105.00
2023-01-13T06:13:31.385Z,95103.00
2023-01-13T06:14:31.427Z,95099.00
2023-01-13T06:15:31.363Z,95099.00
2023-01-13T06:16:31.482Z,95099.00
2023-01-13T06:17:31.340Z,95097.00
2023-01-13T06:18:31.482Z,95099.00
2023-01-13T06:19:31.315Z,95097.00
2023-01-13T06:20:31.302Z,95097.00
2023-01-13T06:21:33.114Z,95097.00
2023-01-13T06:22:31.216Z,95097.00
2023-01-13T06:23:31.153Z,95095.00
2023-01-13T06:24:31.145Z,95095.00
2023-01-13T06:25:31.115Z,95095.00
2023-01-13T06:26:31.125Z,95097.00
2023-01-13T06:27:31.038Z,95099.00
2023-01-13T06:28:31.065Z,95097.00
2023-01-13T06:29:31.019Z,95097.00
2023-01-13T06:30:31.021Z,95093.00
2023-01-13T06:31:31.067Z,95091.00
2023-01-13T06:32:30.983Z,95091.00
2023-01-13T06:33:30.907Z,95089.00
2023-01-13T06:34:30.916Z,95095.00
2023-01-13T06:35:30.867Z,95099.00
2023-01-13T06:36:30.844Z,95101.00
2023-01-13T06:37:30.768Z,95101.00
2023-01-13T06:38:30.808Z,95103.00
2023-01-13T06:39:30.728Z,95101.00
2023-01-13T06:40:30.805Z,95099.00
2023-01-13T06:41:30.669Z,95101.00
2023-01-13T06:42:30.668Z,95103.00
2023-01-13T06:43:30.657Z,95097.00
2023-01-13T06:44:30.787Z,95103.00
2023-01-13T06:45:30.784Z,95101.00
2023-01-13T06:46:30.620Z,95097.00
2023-01-13T06:47:30.553Z,95099.00
2023-01-13T06:48:30.566Z,95101.00
2023-01-13T06:49:30.508Z,95105.00
2023-01-13T06:50:30.507Z,95103.00
2023-01-13T06:51:30.535Z,95103.00
2023-01-13T06:52:30.507Z,95101.00
2023-01-13T06:53:30.400Z,95103.00
2023-01-13T06:54:30.567Z,95107.00
2023-01-13T06:55:30.454Z,95111.00
2023-01-13T06:56:30.404Z,95111.00
2023-01-13T06:57:30.453Z,95107.00
2023-01-13T06:58:30.821Z,95105.00
2023-01-13T06:59:30.310Z,95103.00
2023-01-13T07:00:30.433Z,95101.00
2023-01-13T07:01:30.400Z,95103.00
2023-01-13T07:02:30.390Z,95103.00
2023-01-13T07:03:30.264Z,95109.00
2023-01-13T07:04:30.267Z,95107.00
2023-01-13T07:05:30.218Z,95107.00
2023-01-13T07:06:30.269Z,95109.00
2023-01-13T07:07:30.171Z,95113.00
2023-01-13T07:08:30.193Z,95109.00
2023-01-13T07:09:30.157Z,95111.00
2023-01-13T07:10:30.234Z,95107.00
2023-01-13T07:11:30.272Z,95103.00
2023-01-13T07:12:30.122Z,95103.00
2023-01-13T07:13:30.104Z,95103.00
2023-01-13T07:14:30.102Z,95099.00
2023-01-13T07:15:30.073Z,95103.00
2023-01-13T07:16:30.124Z,95097.00
2023-01-13T07:17:30.143Z,95095.00
2023-01-13T07:18:30.064Z,95087.00
2023-01-13T07:19:29.988Z,95081.00
2023-01-13T07:20:30.197Z,95083.00
2023-01-13T07:21:29.992Z,95087.00
2023-01-13T07:22:30.019Z,95087.00
2023-01-13T07:23:29.927Z,95089.00
2023-01-13T07:24:29.955Z,95091.00
2023-01-13T07:25:29.914Z,95085.00
2023-01-13T07:26:29.931Z,95085.00
2023-01-13T07:27:29.933Z,95081.00
2023-01-13T07:28:29.956Z,95083.00
2023-01-13T07:29:29.859Z,95083.00
2023-01-13T07:30:30.749Z,95091.00
2023-01-13T07:31:29.865Z,95089.00
2023-01-13T07:32:29.868Z,95089.00
2023-01-13T07:33:29.806Z,95087.00
2023-01-13T07:34:29.814Z,95083.00
2023-01-13T07:35:29.807Z,95081.00
2023-01-13T07:36:29.838Z,95081.00
2023-01-13T07:37:29.751Z,95085.00
2023-01-13T07:38:29.759Z,95087.00
2023-01-13T07:39:29.754Z,95087.00
2023-01-13T07:40:29.772Z,95089.00
2023-01-13T07:41:29.702Z,95087.00
2023-01-13T07:42:29.746Z,95091.00
2023-01-13T07:43:29.687Z,95095.00
2023-01-13T07:44:29.735Z,95097.00
2023-01-13T07:45:29.679Z,95101.00
2023-01-13T07:46:29.687Z,95101.00
2023-01-13T07:47:29.658Z,95099.00
2023-01-13T07:48:29.667Z,95101.00
2023-01-13T07:49:29.596Z,95105.00
2023-01-13T07:50:29.622Z,95111.00
2023-01-13T07:51:29.571Z,95113.00
2023-01-13T07:52:29.597Z,95114.00
2023-01-13T07:53:29.573Z,95113.00
2023-01-13T07:54:40.062Z,95113.00
2023-01-13T07:55:30.881Z,95114.00
2023-01-13T07:56:29.487Z,95118.00
2023-01-13T07:57:29.529Z,95118.00
2023-01-13T07:58:29.446Z,95122.00
2023-01-13T07:59:29.446Z,95122.00
2023-01-13T08:00:29.463Z,95118.00
2023-01-13T08:01:29.521Z,95113.00
2023-01-13T08:02:29.528Z,95111.00
2023-01-13T08:03:29.388Z,95111.00
2023-01-13T08:04:29.391Z,95111.00
2023-01-13T08:05:29.351Z,95109.00
2023-01-13T08:06:29.344Z,95111.00
2023-01-13T08:07:29.319Z,95113.00
2023-01-13T08:08:29.308Z,95113.00
2023-01-13T08:09:29.324Z,95109.00
2023-01-13T08:10:29.268Z,95109.00
2023-01-13T08:11:29.307Z,95107.00
2023-01-13T08:12:29.240Z,95107.00
2023-01-13T08:13:29.260Z,95111.00
2023-01-13T08:14:29.208Z,95111.00
2023-01-13T08:15:29.217Z,95111.00
2023-01-13T08:16:29.204Z,95113.00
2023-01-13T08:17:29.180Z,95113.00
2023-01-13T08:18:29.157Z,95113.00
2023-01-13T08:19:29.153Z,95111.00
2023-01-13T08:20:29.120Z,95114.00
2023-01-13T08:21:29.132Z,95114.00
2023-01-13T08:22:29.087Z,95116.00
2023-01-13T08:23:30.958Z,95114.00
2023-01-13T08:24:29.071Z,95111.00
2023-01-13T08:25:29.070Z,95111.00
2023-01-13T08:26:29.167Z,95111.00
2023-01-13T08:27:29.014Z,95113.00
2023-01-13T08:28:28.989Z,95114.00
2023-01-13T08:29:29.032Z,95116.00
2023-01-13T08:30:29.241Z,95120.00
2023-01-13T08:31:28.967Z,95120.00
2023-01-13T08:32:28.936Z,95122.00
2023-01-13T08:33:28.953Z,95124.00
2023-01-13T08:34:29.788Z,95124.00
2023-01-13T08:35:28.930Z,95122.00
2023-01-13T08:36:28.992Z,95124.00
2023-01-13T08:37:28.999Z,95128.00
2023-01-13T08:38:28.898Z,95132.00
2023-01-13T08:39:28.854Z,95132.00
2023-01-13T08:40:28.819Z,95132.00
2023-01-13T08:41:28.840Z,95136.00
2023-01-13T08:42:28.755Z,95134.00
2023-01-13T08:43:28.797Z,95134.00
2023-01-13T08:44:28.764Z,95132.00
2023-01-13T08:45:28.773Z,95136.00
2023-01-13T08:46:28.776Z,95134.00
2023-01-13T08:47:28.708Z,95128.00
2023-01-13T08:48:31.352Z,95126.00
2023-01-13T08:49:28.701Z,95126.00
2023-01-13T08:50:28.654Z,95122.00
2023-01-13T08:51:28.650Z,95122.00
2023-01-13T08:52:28.588Z,95128.00
2023-01-13T08:53:28.686Z,95126.00
2023-01-13T08:54:28.602Z,95124.00
2023-01-13T08:55:28.592Z,95116.00
2023-01-13T08:56:28.538Z,95116.00
2023-01-13T08:57:28.655Z,95111.00
2023-01-13T08:58:28.523Z,95114.00
2023-01-13T08:59:28.628Z,95111.00
2023-01-13T09:00:28.488Z,95114.00
2023-01-13T09:01:28.633Z,95113.00
2023-01-13T09:02:28.613Z,95111.00
2023-01-13T09:03:28.472Z,95107.00
2023-01-13T09:04:28.503Z,95103.00
2023-01-13T09:05:28.478Z,95101.00
2023-01-13T09:06:28.370Z,95095.00
2023-01-13T09:07:28.675Z,95099.00
2023-01-13T09:08:28.613Z,95105.00
2023-01-13T09:09:28.395Z,95107.00
2023-01-13T09:10:28.365Z,95109.00
2023-01-13T09:11:28.330Z,95111.00
2023-01-13T09:12:28.322Z,95107.00
2023-01-13T09:13:28.308Z,95109.00
2023-01-13T09:14:28.250Z,95103.00
2023-01-13T09:15:28.324Z,95107.00
2023-01-13T09:16:28.201Z,95111.00
2023-01-13T09:17:28.222Z,95116.00
2023-01-13T09:18:28.170Z,95114.00
2023-01-13T09:19:28.201Z,95114.00
2023-01-13T09:20:28.117Z,95111.00
2023-01-13T09:21:28.133Z,95113.00
2023-01-13T09:22:28.113Z,95109.00
2023-01-13T09:23:28.111Z,95113.00
2023-01-13T09:24:28.176Z,95114.00
2023-01-13T09:25:28.084Z,95118.00
2023-01-13T09:26:27.978Z,95120.00
2023-01-13T09:27:28.029Z,95120.00
2023-01-13T09:28:27.986Z,95122.00
2023-01-13T09:29:28.039Z,95128.00
2023-01-13T09:30:27.934Z,95126.00
2023-01-13T09:31:28.036Z,95120.00
2023-01-13T09:32:27.871Z,95118.00
2023-01-13T09:33:27.882Z,95116.00
2023-01-13T09:34:27.805Z,95114.00
2023-01-13T09:35:27.848Z,95111.00
2023-01-13T09:36:27.736Z,95114.00
2023-01-13T09:37:27.758Z,95118.00
2023-01-13T09:38:27.681Z,95120.00
2023-01-13T09:39:27.702Z,95122.00
2023-01-13T09:40:27.633Z,95124.00
2023-01-13T09:41:27.726Z,95124.00
2023-01-13T09:42:27.602Z,95124.00
2023-01-13T09:43:27.645Z,95122.00
2023-01-13T09:44:27.523Z,95122.00
2023-01-13T09:45:27.535Z,95120.00
2023-01-13T09:46:29.584Z,95118.00
2023-01-13T09:47:27.494Z,95120.00
2023-01-13T09:48:27.414Z,95122.00
2023-01-13T09:49:27.436Z,95122.00
2023-01-13T09:50:28.416Z,95126.00
2023-01-13T09:51:27.972Z,95124.00
2023-01-13T09:52:27.856Z,95120.00
2023-01-13T09:53:27.438Z,95120.00
2023-01-13T09:54:27.315Z,95118.00
2023-01-13T09:55:27.294Z,95118.00
2023-01-13T09:56:27.249Z,95114.00
2023-01-13T09:57:27.263Z,95116.00
2023-01-13T09:58:27.215Z,95116.00
2023-01-13T09:59:27.194Z,95114.00
2023-01-13T10:00:27.162Z,95113.00
2023-01-13T10:01:27.242Z,95113.00
2023-01-13T10:02:27.119Z,95109.00
2023-01-13T10:03:27.173Z,95105.00
2023-01-13T10:04:27.085Z,95103.00
2023-01-13T10:05:27.890Z,95101.00
2023-01-13T10:06:27.039Z,95091.00
2023-01-13T10:07:27.062Z,95089.00
2023-01-13T10:08:27.215Z,95091.00
2023-01-13T10:09:27.005Z,95085.00
2023-01-13T10:10:26.958Z,95083.00
2023-01-13T10:11:27.032Z,95079.00
2023-01-13T10:12:26.917Z,95073.00
2023-01-13T10:13:26.918Z,95067.00
2023-01-13T10:14:26.878Z,95062.00
2023-01-13T10:15:26.926Z,95056.00
2023-01-13T10:16:27.918Z,95056.00
2023-01-13T10:17:28.102Z,95054.00
2023-01-13T10:18:28.020Z,95052.00
2023-01-13T10:19:29.357Z,95048.00
2023-01-13T10:20:27.073Z,95042.00
2023-01-13T10:21:26.930Z,95034.00
2023-01-13T10:22:26.868Z,95028.00
2023-01-13T10:23:26.868Z,95026.00
2023-01-13T10:24:26.939Z,95024.00
2023-01-13T10:25:26.841Z,95026.00
2023-01-13T10:26:26.800Z,95032.00
2023-01-13T10:27:26.808Z,95034.00
2023-01-13T10:28:26.757Z,95030.00
2023-01-13T10:29:26.776Z,95026.00
2023-01-13T10:30:26.685Z,95024.00
2023-01-13T10:31:26.767Z,95026.00
2023-01-13T10:32:27.645Z,95026.00
2023-01-13T10:33:28.096Z,95030.00
2023-01-13T10:34:27.700Z,95034.00
2023-01-13T10:35:26.635Z,95034.00
2023-01-13T10:36:26.585Z,95032.00
2023-01-13T10:37:26.569Z,95028.00
2023-01-13T10:38:26.536Z,95026.00
2023-01-13T10:39:26.561Z,95028.00
2023-01-13T10:40:26.511Z,95024.00
2023-01-13T10:41:26.536Z,95028.00
2023-01-13T10:42:26.452Z,95030.00
2023-01-13T10:43:26.470Z,95030.00
2023-01-13T10:44:26.442Z,95034.00
2023-01-13T10:45:26.435Z,95028.00
2023-01-13T10:46:26.479Z,95030.00
2023-01-13T10:47:26.414Z,95022.00
2023-01-13T10:48:26.344Z,95024.00
2023-01-13T10:49:26.373Z,95020.00
2023-01-13T10:50:26.507Z,95020.00
2023-01-13T10:51:26.325Z,95018.00
2023-01-13T10:52:26.343Z,95016.00
2023-01-13T10:53:26.281Z,95014.00
2023-01-13T10:54:26.252Z,95012.00
2023-01-13T10:55:26.277Z,95014.00
2023-01-13T10:56:26.192Z,95012.00
2023-01-13T10:57:26.271Z,95009.00
2023-01-13T10:58:26.181Z,95009.00
2023-01-13T10:59:26.186Z,95003.00
2023-01-13T11:00:26.522Z,94999.00
2023-01-13T11:01:26.411Z,94999.00
2023-01-13T11:02:26.979Z,94997.00
2023-01-13T11:03:26.176Z,94987.00
2023-01-13T11:04:26.184Z,94987.00
2023-01-13T11:05:26.150Z,94981.00
2023-01-13T11:06:26.170Z,94977.00
2023-01-13T11:07:28.359Z,94977.00
2023-01-13T11:08:26.079Z,94975.00
2023-01-13T11:09:26.093Z,94969.00
2023-01-13T11:10:26.064Z,94967.00
2023-01-13T11:11:26.061Z,94962.00
2023-01-13T11:12:25.993Z,94962.00
2023-01-13T11:13:26.046Z,94964.00
2023-01-13T11:14:25.958Z,94964.00
2023-01-13T11:15:27.477Z,94964.00
2023-01-13T11:16:26.983Z,94960.00
2023-01-13T11:17:28.265Z,94956.00
2023-01-13T11:18:26.867Z,94960.00
2023-01-13T11:19:26.025Z,94956.00
2023-01-13T11:20:25.851Z,94958.00
2023-01-13T11:21:27.296Z,94958.00
2023-01-13T11:22:27.613Z,94956.00
2023-01-13T11:23:27.316Z,94956.00
2023-01-13T11:24:26.458Z,94954.00
2023-01-13T11:25:25.811Z,94952.00
2023-01-13T11:26:25.764Z,94946.00
2023-01-13T11:27:25.881Z,94942.00
2023-01-13T11:28:25.869Z,94944.00
2023-01-13T11:29:26.973Z,94946.00
2023-01-13T11:30:25.700Z,94944.00
2023-01-13T11:31:25.904Z,94940.00
2023-01-13T11:32:25.662Z,94934.00
2023-01-13T11:33:25.672Z,94934.00
2023-01-13T11:34:25.596Z,94936.00
2023-01-13T11:35:25.642Z,94934.00
2023-01-13T11:36:25.603Z,94930.00
2023-01-13T11:37:27.020Z,94926.00
2023-01-13T11:38:26.246Z,94922.00
2023-01-13T11:39:27.088Z,94926.00
2023-01-13T11:40:25.652Z,94924.00
2023-01-13T11:41:25.513Z,94928.00
2023-01-13T11:42:25.528Z,94928.00
2023-01-13T11:43:25.488Z,94928.00
2023-01-13T11:44:25.402Z,94932.00